createdAt,value
2023-04-22T00:02:21.142Z,101261.53
2023-04-22T00:04:50.153Z,101257.72
2023-04-22T00:07:18.712Z,101255.09
2023-04-22T00:09:46.923Z,101249.59
2023-04-22T00:12:14.997Z,101247.53
2023-04-22T00:14:43.306Z,101248.53
2023-04-22T00:17:13.366Z,101236.13
2023-04-22T00:19:42.743Z,101239.94
2023-04-22T00:22:11.285Z,101238.19
2023-04-22T00:24:39.685Z,101235.34
2023-04-22T00:27:08.184Z,101227.38
2023-04-22T00:29:39.838Z,101230.38
2023-04-22T00:32:08.525Z,101223.47
2023-04-22T00:34:40.305Z,101223.00
2023-04-22T00:37:08.268Z,101219.09
2023-04-22T00:39:39.407Z,101213.56
2023-04-22T00:42:08.055Z,101213.66
2023-04-22T00:44:37.184Z,101214.53
2023-04-22T00:47:05.796Z,101207.34
2023-04-22T00:49:33.860Z,101217.94
2023-04-22T00:52:03.244Z,101201.72
2023-04-22T00:54:35.518Z,101203.63
2023-04-22T00:57:04.182Z,101199.59
2023-04-22T00:59:32.195Z,101191.69
2023-04-22T01:02:01.626Z,101198.06
2023-04-22T01:04:29.898Z,101198.75
2023-04-22T01:06:58.804Z,101187.84
2023-04-22T01:09:31.680Z,101191.97
2023-04-22T01:11:59.704Z,101195.22
2023-04-22T01:14:28.801Z,101199.03
2023-04-22T01:16:57.880Z,101187.09
2023-04-22T01:19:26.380Z,101182.78
2023-04-22T01:21:55.885Z,101183.34
2023-04-22T01:24:26.711Z,101186.22
2023-04-22T01:26:55.438Z,101177.66
2023-04-22T01:29:23.809Z,101183.16
2023-04-22T01:31:52.478Z,101175.63
2023-04-22T01:34:20.555Z,101173.06
2023-04-22T01:36:48.616Z,101177.66
2023-04-22T01:39:16.714Z,101161.50
2023-04-22T01:41:46.539Z,101164.19
2023-04-22T01:44:18.006Z,101162.53
2023-04-22T01:46:47.175Z,101160.53
2023-04-22T01:49:15.162Z,101167.72
2023-04-22T01:51:43.504Z,101158.56
2023-04-22T01:54:11.508Z,101151.47
2023-04-22T01:56:40.584Z,101151.94
2023-04-22T01:59:10.109Z,101148.59
2023-04-22T02:01:38.038Z,101140.69
2023-04-22T02:04:06.045Z,101145.56
2023-04-22T02:06:34.030Z,101142.97
2023-04-22T02:09:02.284Z,101144.59
2023-04-22T02:11:30.325Z,101138.19
2023-04-22T02:13:58.675Z,101135.72
2023-04-22T02:16:28.258Z,101134.97
2023-04-22T02:18:56.428Z,101127.88
2023-04-22T02:21:24.537Z,101132.34
2023-04-22T02:23:52.511Z,101134.88
2023-04-22T02:26:20.822Z,101124.94
2023-04-22T02:28:48.981Z,101124.25
2023-04-22T02:31:17.026Z,101112.41
2023-04-22T02:33:46.355Z,101110.06
2023-04-22T02:36:14.538Z,101116.06
2023-04-22T02:38:42.498Z,101113.38
2023-04-22T02:41:10.617Z,101115.00
2023-04-22T02:43:38.743Z,101117.00
2023-04-22T02:46:06.982Z,101110.72
2023-04-22T02:48:34.928Z,101109.75
2023-04-22T02:51:04.527Z,101096.56
2023-04-22T02:53:32.472Z,101098.59
2023-04-22T02:56:00.671Z,101095.31
2023-04-22T02:58:28.767Z,101091.88
2023-04-22T03:00:58.135Z,101086.63
2023-04-22T03:03:26.667Z,101080.34
2023-04-22T03:05:57.787Z,101075.84
2023-04-22T03:08:27.158Z,101080.94
2023-04-22T03:10:55.098Z,101083.03
2023-04-22T03:13:23.049Z,101090.84
2023-04-22T03:15:51.310Z,101087.78
2023-04-22T03:18:19.328Z,101072.31
2023-04-22T03:20:47.290Z,101070.59
2023-04-22T03:23:15.368Z,101067.81
2023-04-22T03:25:47.539Z,101063.72
2023-04-22T03:28:15.616Z,101053.16
2023-04-22T03:30:43.575Z,101056.00
2023-04-22T03:33:12.972Z,101057.91
2023-04-22T03:35:44.035Z,101058.69
2023-04-22T03:38:13.623Z,101059.94
2023-04-22T03:40:42.129Z,101053.63
2023-04-22T03:43:11.936Z,101054.03
2023-04-22T03:45:40.231Z,101054.59
2023-04-22T03:48:08.237Z,101053.91
2023-04-22T03:50:36.768Z,101048.38
2023-04-22T03:53:04.900Z,101048.94
2023-04-22T03:55:32.976Z,101045.59
2023-04-22T03:58:01.016Z,101037.75
2023-04-22T04:00:30.534Z,101041.03
2023-04-22T04:02:59.104Z,101040.53
2023-04-22T04:05:29.686Z,101033.59
2023-04-22T04:07:59.914Z,101028.41
2023-04-22T04:10:28.455Z,101026.63
2023-04-22T04:12:59.295Z,101026.44
2023-04-22T04:15:27.342Z,101027.00
2023-04-22T04:17:56.898Z,101026.34
2023-04-22T04:20:25.180Z,101023.47
2023-04-22T04:22:53.481Z,101029.47
2023-04-22T04:25:22.577Z,101032.34
2023-04-22T04:27:51.884Z,101026.63
2023-04-22T04:30:23.446Z,101026.91
2023-04-22T04:32:51.508Z,101036.34
2023-04-22T04:35:24.388Z,101019.19
2023-04-22T04:37:53.844Z,101012.59
2023-04-22T04:40:29.439Z,101012.22
2023-04-22T04:42:58.066Z,101002.09
2023-04-22T04:45:26.339Z,101006.19
2023-04-22T04:47:54.936Z,101001.41
2023-04-22T04:50:28.190Z,101010.69
2023-04-22T04:52:56.611Z,101021.47
2023-04-22T04:55:24.626Z,101005.06
2023-04-22T04:57:52.607Z,101001.41
2023-04-22T05:00:20.892Z,100997.81
2023-04-22T05:02:49.156Z,101004.56
2023-04-22T05:05:17.675Z,101005.34
2023-04-22T05:07:47.265Z,100997.00
2023-04-22T05:10:15.685Z,101006.75
2023-04-22T05:12:46.370Z,101016.97
2023-04-22T05:15:14.679Z,101004.53
2023-04-22T05:17:42.704Z,100995.38
2023-04-22T05:20:11.665Z,100994.41
2023-04-22T05:22:41.479Z,100998.22
2023-04-22T05:25:12.178Z,101004.59
2023-04-22T05:27:40.316Z,101009.06
2023-04-22T05:30:13.201Z,101026.91
2023-04-22T05:32:41.320Z,101018.84
2023-04-22T05:35:11.220Z,101005.72
2023-04-22T05:37:40.245Z,101003.59
2023-04-22T05:40:11.115Z,100993.53
2023-04-22T05:42:39.078Z,100979.28
2023-04-22T05:45:08.340Z,100977.81
2023-04-22T05:47:36.484Z,100994.91
2023-04-22T05:50:06.268Z,100992.16
2023-04-22T05:52:40.429Z,100995.53
2023-04-22T05:55:11.132Z,100996.47
2023-04-22T05:57:39.637Z,100986.34
2023-04-22T06:00:11.507Z,100988.44
2023-04-22T06:02:39.898Z,100973.69
2023-04-22T06:05:09.330Z,100975.09
2023-04-22T06:07:41.314Z,100979.28
2023-04-22T06:10:11.535Z,100979.78
2023-04-22T06:12:39.484Z,100971.88
2023-04-22T06:15:08.501Z,100977.53
2023-04-22T06:17:39.560Z,100977.53
2023-04-22T06:20:17.139Z,100973.78
2023-04-22T06:22:45.339Z,100976.47
2023-04-22T06:25:16.794Z,100972.78
2023-04-22T06:27:48.095Z,100979.66
2023-04-22T06:30:16.612Z,100976.31
2023-04-22T06:32:45.148Z,100971.00
2023-04-22T06:35:16.466Z,100968.44
2023-04-22T06:37:44.737Z,100967.75
2023-04-22T06:40:18.071Z,100969.63
2023-04-22T06:42:46.053Z,100962.78
2023-04-22T06:45:14.341Z,100973.63
2023-04-22T06:47:44.619Z,100972.94
2023-04-22T06:50:13.309Z,100965.19
2023-04-22T06:52:42.198Z,100963.22
2023-04-22T06:55:11.734Z,100963.59
2023-04-22T06:57:41.770Z,100963.41
2023-04-22T07:00:10.614Z,100955.97
2023-04-22T07:02:48.023Z,100954.56
2023-04-22T07:05:17.676Z,100937.03
2023-04-22T07:07:49.544Z,100932.50
2023-04-22T07:10:21.058Z,100937.56
2023-04-22T07:12:52.706Z,100939.00
2023-04-22T07:15:20.891Z,100939.00
2023-04-22T07:17:49.000Z,100936.38
2023-04-22T07:20:17.164Z,100932.25
2023-04-22T07:22:47.309Z,100930.47
2023-04-22T07:25:15.372Z,100930.94
2023-04-22T07:27:43.444Z,100927.88
2023-04-22T07:30:14.290Z,100925.47
2023-04-22T07:32:42.344Z,100919.72
2023-04-22T07:35:13.444Z,100922.44
2023-04-22T07:37:41.437Z,100922.91
2023-04-22T07:40:12.098Z,100917.34
2023-04-22T07:42:40.715Z,100907.34
2023-04-22T07:45:09.567Z,100908.16
2023-04-22T07:47:39.087Z,100905.69
2023-04-22T07:50:08.323Z,100905.97
2023-04-22T07:52:36.408Z,100908.00
2023-04-22T07:55:04.476Z,100906.91
2023-04-22T07:57:36.332Z,100908.91
2023-04-22T08:00:05.231Z,100909.03
2023-04-22T08:02:33.414Z,100896.56
2023-04-22T08:05:03.140Z,100895.00
2023-04-22T08:07:33.512Z,100893.72
2023-04-22T08:10:04.958Z,100900.97
2023-04-22T08:12:33.064Z,100891.72
2023-04-22T08:15:04.098Z,100887.34
2023-04-22T08:17:32.100Z,100881.88
2023-04-22T08:20:00.078Z,100878.25
2023-04-22T08:22:30.880Z,100887.09
2023-04-22T08:24:59.644Z,100890.38
2023-04-22T08:27:27.637Z,100883.03
2023-04-22T08:29:56.084Z,100890.00
2023-04-22T08:32:26.594Z,100886.22
2023-04-22T08:35:01.395Z,100889.16
2023-04-22T08:37:33.949Z,100874.75
2023-04-22T08:40:02.007Z,100877.84
2023-04-22T08:42:31.972Z,100876.06
2023-04-22T08:45:00.313Z,100874.16
2023-04-22T08:47:28.984Z,100886.19
2023-04-22T08:49:57.163Z,100880.50
2023-04-22T08:52:28.195Z,100872.25
2023-04-22T08:54:57.792Z,100867.59
2023-04-22T08:57:26.933Z,100870.19
2023-04-22T08:59:56.308Z,100869.25
2023-04-22T09:02:25.949Z,100878.59
2023-04-22T09:04:55.234Z,100865.91
2023-04-22T09:07:25.246Z,100873.22
2023-04-22T09:09:54.295Z,100865.06
2023-04-22T09:12:24.092Z,100863.59
2023-04-22T09:14:52.572Z,100866.53
2023-04-22T09:17:32.036Z,100864.72
2023-04-22T09:20:00.929Z,100868.44
2023-04-22T09:22:29.679Z,100861.38
2023-04-22T09:24:57.989Z,100862.53
2023-04-22T09:27:27.439Z,100861.91
2023-04-22T09:29:55.833Z,100864.31
2023-04-22T09:32:26.173Z,100865.91
2023-04-22T09:34:55.983Z,100853.03
2023-04-22T09:37:35.873Z,100854.91
2023-04-22T09:40:16.540Z,100853.03
2023-04-22T09:42:51.173Z,100848.81
2023-04-22T09:45:33.140Z,100838.25
2023-04-22T09:48:03.170Z,100849.13
2023-04-22T09:50:31.288Z,100838.97
2023-04-22T09:53:02.432Z,100838.44
2023-04-22T09:55:35.675Z,100836.81
2023-04-22T09:58:09.914Z,100840.78
2023-04-22T10:00:42.500Z,100832.44
2023-04-22T10:03:11.210Z,100829.97
2023-04-22T10:05:39.767Z,100831.63
2023-04-22T10:08:09.074Z,100828.91
2023-04-22T10:10:38.226Z,100831.63
2023-04-22T10:13:08.160Z,100826.56
2023-04-22T10:15:37.754Z,100825.81
2023-04-22T10:18:09.692Z,100822.88
2023-04-22T10:20:40.239Z,100811.88
2023-04-22T10:23:14.692Z,100804.44
2023-04-22T10:25:43.170Z,100805.50
2023-04-22T10:28:13.598Z,100798.50
2023-04-22T10:30:41.580Z,100795.22
2023-04-22T10:33:39.244Z,100804.75
2023-04-22T10:36:09.477Z,100790.91
2023-04-22T10:38:38.130Z,100789.00
2023-04-22T10:41:08.375Z,100784.59
2023-04-22T10:43:45.401Z,100779.22
2023-04-22T10:46:53.295Z,100784.81
2023-04-22T10:49:22.406Z,100776.28
2023-04-22T10:51:51.802Z,100772.53
2023-04-22T10:54:56.941Z,100775.78
2023-04-22T10:57:37.763Z,100767.56
2023-04-22T11:00:23.075Z,100764.38
2023-04-22T11:02:54.433Z,100759.50
2023-04-22T11:05:26.265Z,100769.25
2023-04-22T11:07:55.949Z,100752.84
2023-04-22T11:10:43.081Z,100753.88
2023-04-22T11:13:13.992Z,100741.63
2023-04-22T11:15:44.870Z,100744.69
2023-04-22T11:18:20.613Z,100745.09
2023-04-22T11:20:50.001Z,100742.81
2023-04-22T11:23:23.569Z,100736.59
2023-04-22T11:25:56.091Z,100727.63
2023-04-22T11:28:24.219Z,100732.00
2023-04-22T11:30:54.490Z,100726.44
2023-04-22T11:33:22.536Z,100726.75
2023-04-22T11:35:51.698Z,100723.34
2023-04-22T11:38:19.770Z,100715.34
2023-04-22T11:40:48.615Z,100713.66
2023-04-22T11:43:18.912Z,100709.06
2023-04-22T11:45:47.069Z,100699.53
2023-04-22T11:48:17.107Z,100707.50
2023-04-22T11:50:45.563Z,100705.56
2023-04-22T11:53:17.972Z,100699.50
2023-04-22T11:55:47.547Z,100698.72
2023-04-22T11:58:17.709Z,100701.75
2023-04-22T12:00:47.602Z,100683.50
2023-04-22T12:03:20.832Z,100688.81
2023-04-22T12:05:55.476Z,100690.97
2023-04-22T12:08:25.093Z,100682.88
2023-04-22T12:10:55.170Z,100686.13
2023-04-22T12:13:25.322Z,100682.00
2023-04-22T12:15:56.761Z,100679.53
2023-04-22T12:18:34.087Z,100672.03
2023-04-22T12:21:03.652Z,100674.59
2023-04-22T12:23:42.225Z,100664.75
2023-04-22T12:26:10.529Z,100672.63
2023-04-22T12:28:39.198Z,100676.03
2023-04-22T12:31:07.546Z,100665.81
2023-04-22T12:33:38.359Z,100660.41
2023-04-22T12:36:06.996Z,100656.91
2023-04-22T12:38:35.295Z,100664.00
2023-04-22T12:41:07.571Z,100653.78
2023-04-22T12:43:36.830Z,100650.66
2023-04-22T12:46:05.871Z,100647.81
2023-04-22T12:48:34.552Z,100654.00
2023-04-22T12:51:04.316Z,100640.53
2023-04-22T12:53:35.533Z,100641.22
2023-04-22T12:56:03.585Z,100628.31
2023-04-22T12:58:34.986Z,100630.22
2023-04-22T13:01:02.969Z,100616.25
2023-04-22T13:03:31.650Z,100630.72
2023-04-22T13:06:00.175Z,100625.69
2023-04-22T13:08:34.130Z,100625.94
2023-04-22T13:11:02.564Z,100623.63
2023-04-22T13:13:31.402Z,100617.94
2023-04-22T13:15:59.494Z,100618.41
2023-04-22T13:18:27.590Z,100617.28
2023-04-22T13:20:56.874Z,100614.66
2023-04-22T13:23:25.974Z,100612.03
2023-04-22T13:25:55.649Z,100611.25
2023-04-22T13:28:23.571Z,100604.53
2023-04-22T13:30:51.586Z,100594.16
2023-04-22T13:33:19.611Z,100584.19
2023-04-22T13:35:47.614Z,100589.19
2023-04-22T13:38:15.616Z,100588.59
2023-04-22T13:40:43.653Z,100581.38
2023-04-22T13:43:13.388Z,100575.34
2023-04-22T13:45:42.343Z,100577.81
2023-04-22T13:48:10.443Z,100569.91
2023-04-22T13:50:40.696Z,100579.94
2023-04-22T13:53:10.612Z,100586.00
2023-04-22T13:55:38.704Z,100575.16
2023-04-22T13:58:06.743Z,100566.69
2023-04-22T14:00:36.733Z,100582.41
2023-04-22T14:03:04.930Z,100563.22
2023-04-22T14:05:33.113Z,100569.16
2023-04-22T14:08:01.227Z,100565.50
2023-04-22T14:10:34.934Z,100557.66
2023-04-22T14:13:03.087Z,100546.66
2023-04-22T14:15:31.652Z,100551.94
2023-04-22T14:18:01.068Z,100543.91
2023-04-22T14:20:29.037Z,100541.38
2023-04-22T14:22:57.152Z,100535.47
2023-04-22T14:25:25.239Z,100536.84
2023-04-22T14:27:54.016Z,100532.53
2023-04-22T14:30:22.028Z,100531.44
2023-04-22T14:32:52.876Z,100521.97
2023-04-22T14:35:22.766Z,100521.75
2023-04-22T14:37:50.849Z,100519.34
2023-04-22T14:40:20.091Z,100509.38
2023-04-22T14:42:48.119Z,100504.13
2023-04-22T14:45:16.204Z,100502.34
2023-04-22T14:47:44.174Z,100501.00
2023-04-22T14:50:12.600Z,100494.03
2023-04-22T14:52:42.014Z,100493.03
2023-04-22T14:55:21.805Z,100487.63
2023-04-22T14:57:52.297Z,100487.91
2023-04-22T15:00:20.570Z,100485.84
2023-04-22T15:02:48.745Z,100491.03
2023-04-22T15:05:19.235Z,100491.59
2023-04-22T15:07:48.754Z,100486.66
2023-04-22T15:10:17.755Z,100480.81
2023-04-22T15:12:46.085Z,100488.06
2023-04-22T15:15:16.043Z,100479.28
2023-04-22T15:17:45.016Z,100471.25
2023-04-22T15:20:13.900Z,100467.84
2023-04-22T15:22:42.166Z,100462.88
2023-04-22T15:25:12.265Z,100457.28
2023-04-22T15:27:40.874Z,100468.38
2023-04-22T15:30:10.949Z,100455.91
2023-04-22T15:32:40.203Z,100455.72
2023-04-22T15:35:09.597Z,100445.56
2023-04-22T15:37:37.632Z,100451.66
2023-04-22T15:40:07.086Z,100448.63
2023-04-22T15:42:37.516Z,100450.84
2023-04-22T15:45:06.897Z,100436.81
2023-04-22T15:47:36.228Z,100439.25
2023-04-22T15:50:09.066Z,100431.63
2023-04-22T15:52:39.001Z,100434.19
2023-04-22T15:55:08.015Z,100433.53
2023-04-22T15:57:37.415Z,100439.47
2023-04-22T16:00:11.753Z,100430.72
2023-04-22T16:02:40.740Z,100433.00
2023-04-22T16:05:09.481Z,100425.56
2023-04-22T16:07:37.453Z,100426.06
2023-04-22T16:10:06.422Z,100434.94
2023-04-22T16:12:34.708Z,100431.47
2023-04-22T16:15:04.354Z,100415.78
2023-04-22T16:17:33.066Z,100416.66
2023-04-22T16:20:01.476Z,100410.97
2023-04-22T16:22:30.213Z,100418.59
2023-04-22T16:24:58.219Z,100424.47
2023-04-22T16:27:26.278Z,100421.16
2023-04-22T16:29:54.346Z,100420.25
2023-04-22T16:32:23.837Z,100422.31
2023-04-22T16:34:51.791Z,100411.31
2023-04-22T16:37:19.681Z,100404.56
2023-04-22T16:39:47.670Z,100403.25
2023-04-22T16:42:15.877Z,100405.31
2023-04-22T16:44:44.255Z,100403.25
2023-04-22T16:47:12.225Z,100397.31
2023-04-22T16:49:41.818Z,100397.59
2023-04-22T16:52:10.099Z,100388.50
2023-04-22T16:54:37.986Z,100389.16
2023-04-22T16:57:07.607Z,100385.78
2023-04-22T16:59:35.851Z,100392.44
2023-04-22T17:02:05.799Z,100396.34
2023-04-22T17:04:34.042Z,100384.19
2023-04-22T17:07:03.818Z,100392.88
2023-04-22T17:09:33.144Z,100378.38
2023-04-22T17:12:01.751Z,100380.69
2023-04-22T17:14:30.376Z,100381.22
2023-04-22T17:16:58.373Z,100380.59
2023-04-22T17:19:28.011Z,100378.97
2023-04-22T17:21:56.067Z,100375.25
2023-04-22T17:24:25.664Z,100377.09
2023-04-22T17:26:53.923Z,100374.31
2023-04-22T17:29:21.987Z,100371.66
2023-04-22T17:31:50.539Z,100367.44
2023-04-22T17:34:18.740Z,100370.34
2023-04-22T17:36:46.848Z,100375.81
2023-04-22T17:39:15.406Z,100374.66
2023-04-22T17:41:45.225Z,100382.63
2023-04-22T17:44:13.273Z,100373.16
2023-04-22T17:46:41.841Z,100366.19
2023-04-22T17:49:09.989Z,100368.25
2023-04-22T17:51:38.559Z,100367.38
2023-04-22T17:54:07.097Z,100367.75
2023-04-22T17:56:35.560Z,100370.84
2023-04-22T17:59:08.152Z,100371.16
2023-04-22T18:01:36.623Z,100373.13
2023-04-22T18:04:05.065Z,100374.66
2023-04-22T18:06:33.123Z,100374.84
2023-04-22T18:09:04.322Z,100377.56
2023-04-22T18:11:34.272Z,100370.44
2023-04-22T18:14:02.486Z,100377.72
2023-04-22T18:16:33.458Z,100381.31
2023-04-22T18:19:02.745Z,100385.25
2023-04-22T18:21:33.889Z,100382.19
2023-04-22T18:24:03.194Z,100389.66
2023-04-22T18:26:34.222Z,100393.03
2023-04-22T18:29:02.360Z,100381.88
2023-04-22T18:31:35.828Z,100389.00
2023-04-22T18:34:04.348Z,100395.63
2023-04-22T18:36:35.645Z,100396.81
2023-04-22T18:39:05.620Z,100391.72
2023-04-22T18:41:38.089Z,100396.31
2023-04-22T18:44:06.313Z,100395.44
2023-04-22T18:46:35.947Z,100395.97
2023-04-22T18:49:04.192Z,100402.06
2023-04-22T18:51:33.548Z,100404.94
2023-04-22T18:54:01.797Z,100402.41
2023-04-22T18:56:31.550Z,100402.91
2023-04-22T18:59:00.002Z,100399.38
2023-04-22T19:01:28.434Z,100394.09
2023-04-22T19:03:58.001Z,100400.38
2023-04-22T19:06:27.347Z,100400.22
2023-04-22T19:08:55.537Z,100400.41
2023-04-22T19:11:23.818Z,100406.16
2023-04-22T19:13:53.708Z,100403.25
2023-04-22T19:16:24.271Z,100410.22
2023-04-22T19:18:53.922Z,100402.59
2023-04-22T19:21:23.338Z,100404.28
2023-04-22T19:23:52.978Z,100402.75
2023-04-22T19:26:22.083Z,100406.81
2023-04-22T19:28:50.222Z,100410.22
2023-04-22T19:31:18.753Z,100410.38
2023-04-22T19:33:46.990Z,100409.03
2023-04-22T19:36:15.157Z,100410.38
2023-04-22T19:38:47.350Z,100409.19
2023-04-22T19:41:15.559Z,100399.53
2023-04-22T19:43:43.836Z,100403.94
2023-04-22T19:46:16.325Z,100401.69
2023-04-22T19:48:44.828Z,100400.38
2023-04-22T19:51:13.070Z,100396.56
2023-04-22T19:53:42.267Z,100401.69
2023-04-22T19:56:12.159Z,100393.56
2023-04-22T19:58:40.972Z,100397.25
2023-04-22T20:01:09.314Z,100392.16
2023-04-22T20:03:38.408Z,100401.34
2023-04-22T20:06:07.288Z,100402.00
2023-04-22T20:08:36.545Z,100434.81
2023-04-22T20:11:05.027Z,100481.84
2023-04-22T20:13:35.485Z,100476.81
2023-04-22T20:16:04.398Z,100477.09
2023-04-22T20:18:36.518Z,100481.53
2023-04-22T20:21:09.021Z,100483.38
2023-04-22T20:23:39.676Z,100480.84
2023-04-22T20:26:08.332Z,100481.66
2023-04-22T20:28:45.285Z,100486.84
2023-04-22T20:31:13.813Z,100481.09
2023-04-22T20:33:42.276Z,100483.09
2023-04-22T20:36:11.722Z,100478.03
2023-04-22T20:38:39.814Z,100481.72
2023-04-22T20:41:28.814Z,100475.97
2023-04-22T20:43:58.196Z,100470.72
2023-04-22T20:46:26.389Z,100474.41
2023-04-22T20:48:57.243Z,100474.06
2023-04-22T20:51:25.274Z,100470.13
2023-04-22T20:53:56.831Z,100462.03
2023-04-22T20:56:25.441Z,100463.88
2023-04-22T20:59:00.740Z,100464.03
2023-04-22T21:01:33.923Z,100475.88
2023-04-22T21:04:06.411Z,100479.91
2023-04-22T21:06:35.109Z,100471.16
2023-04-22T21:09:10.787Z,100478.47
2023-04-22T21:11:39.628Z,100482.50
2023-04-22T21:14:09.484Z,100484.50
2023-04-22T21:16:41.635Z,100475.59
2023-04-22T21:19:10.415Z,100483.66
2023-04-22T21:21:40.056Z,100485.19
2023-04-22T21:24:09.787Z,100483.31
2023-04-22T21:26:40.362Z,100486.59
2023-04-22T21:29:11.207Z,100479.97
2023-04-22T21:31:39.595Z,100491.44
2023-04-22T21:34:09.827Z,100477.72
2023-04-22T21:36:38.252Z,100480.84
2023-04-22T21:39:07.040Z,100486.72
2023-04-22T21:41:35.464Z,100483.97
2023-04-22T21:44:03.736Z,100478.03
2023-04-22T21:46:33.137Z,100484.94
2023-04-22T21:49:01.370Z,100481.34
2023-04-22T21:51:31.613Z,100478.81
2023-04-22T21:53:59.946Z,100483.50
2023-04-22T21:56:28.061Z,100480.97
2023-04-22T21:58:56.195Z,100479.59
2023-04-22T22:01:25.836Z,100478.72
2023-04-22T22:03:55.794Z,100481.88
2023-04-22T22:06:24.188Z,100478.53
2023-04-22T22:08:53.443Z,100480.34
2023-04-22T22:13:52.238Z,100482.00
2023-04-22T22:16:20.340Z,100487.00
2023-04-22T22:18:50.021Z,100487.69
2023-04-22T22:21:19.426Z,100488.00
2023-04-22T22:23:47.294Z,100485.63
2023-04-22T22:26:15.387Z,100485.75
2023-04-22T22:28:43.378Z,100483.22
2023-04-22T22:31:11.329Z,100489.88
2023-04-22T22:33:39.362Z,100490.03
2023-04-22T22:36:08.679Z,100482.63
2023-04-22T22:38:38.385Z,100477.56
2023-04-22T22:41:06.391Z,100482.44
2023-04-22T22:43:34.579Z,100481.72
2023-04-22T22:46:05.790Z,100479.31
2023-04-22T22:48:34.599Z,100474.91
2023-04-22T22:51:05.343Z,100469.84
2023-04-22T22:53:36.432Z,100471.69
2023-04-22T22:56:07.833Z,100473.69
2023-04-22T22:58:36.718Z,100464.19
2023-04-22T23:01:05.122Z,100465.31
2023-04-22T23:03:33.560Z,100469.38
2023-04-22T23:06:04.143Z,100466.41
2023-04-22T23:08:32.344Z,100464.22
2023-04-22T23:11:02.156Z,100463.38
2023-04-22T23:13:31.643Z,100467.38
2023-04-22T23:16:00.672Z,100463.97
2023-04-22T23:18:29.787Z,100459.63
2023-04-22T23:21:00.423Z,100455.91
2023-04-22T23:23:29.839Z,100454.38
2023-04-22T23:26:00.861Z,100454.38
2023-04-22T23:28:29.505Z,100461.19
2023-04-22T23:30:59.095Z,100448.41
2023-04-22T23:33:27.622Z,100451.38
2023-04-22T23:35:57.610Z,100446.84
2023-04-22T23:38:25.736Z,100452.41
2023-04-22T23:40:53.784Z,100443.28
2023-04-22T23:43:21.770Z,100441.88
2023-04-22T23:45:49.985Z,100450.44
2023-04-22T23:48:20.729Z,100445.19
2023-04-22T23:50:48.628Z,100433.72
2023-04-22T23:53:16.845Z,100442.50
2023-04-22T23:55:48.732Z,100436.41
2023-04-22T23:58:17.105Z,100430.16
